Time;durP1;ratioP1;P1;durP2;ratioP2;P2;SDS_P1;SDS_P2;PMS_P1;PMS_P2;Temp;Humidity;BMP_temperature;BMP_pressure;BME280_temperature;BME280_humidity;BME280_pressure;Samples;Min_cycle;Max_cycle;Signal;HPM_P1;HPM_P2
2022/12/14 00:01:23;;;;;;;20.85;9.70;;;;;;;1.69;89.34;96905.47;5062527;28;20510;-55
2022/12/14 00:03:51;;;;;;;15.85;9.20;;;;;;;1.78;89.55;96909.03;5064245;28;20048;-56
2022/12/14 00:06:20;;;;;;;20.45;10.60;;;;;;;1.50;89.26;96846.50;5063996;28;20048;-56
2022/12/14 00:08:49;;;;;;;21.17;10.52;;;;;;;1.74;88.91;96897.16;5063991;28;20060;-56
2022/12/14 00:11:18;;;;;;;20.17;11.18;;;;;;;1.74;89.10;96902.59;5064125;28;20060;-56
2022/12/14 00:13:45;;;;;;;19.80;11.02;;;;;;;1.73;88.74;96906.44;5063923;28;20059;-56
2022/12/14 00:16:16;;;;;;;16.13;9.40;;;;;;;1.78;87.94;96898.91;5063951;28;20106;-57
2022/12/14 00:18:47;;;;;;;21.63;12.70;;;;;;;1.80;88.10;96898.59;5064061;28;20060;-56
2022/12/14 00:21:14;;;;;;;22.98;11.50;;;;;;;1.79;89.15;96903.25;5064396;28;20143;-55
2022/12/14 00:23:44;;;;;;;24.73;12.10;;;;;;;1.89;88.69;96899.41;5064305;28;20135;-56
2022/12/14 00:26:20;;;;;;;20.48;10.93;;;;;;;1.94;89.17;96889.16;5064149;28;20511;-55
2022/12/14 00:28:49;;;;;;;21.33;10.50;;;;;;;1.98;87.11;96902.97;5063622;28;20091;-55
2022/12/14 00:31:16;;;;;;;18.40;10.10;;;;;;;1.98;86.59;96898.31;5063910;28;20487;-57
2022/12/14 00:33:43;;;;;;;22.55;10.15;;;;;;;0.88;85.47;96733.22;5063669;28;20076;-55
2022/12/14 00:36:11;;;;;;;18.88;10.30;;;;;;;1.98;85.92;96892.03;5062513;28;20076;-55
2022/12/14 00:38:39;;;;;;;27.27;10.75;;;;;;;1.91;84.25;96878.06;5063624;28;20151;-54
2022/12/14 00:41:06;;;;;;;22.42;11.60;;;;;;;2.03;83.48;96878.22;5064008;28;20147;-55
2022/12/14 00:43:34;;;;;;;22.65;11.00;;;;;;;2.11;82.35;96880.97;5063621;28;20076;-56
2022/12/14 00:46:01;;;;;;;20.17;9.77;;;;;;;2.13;81.49;96894.31;5063768;28;20048;-56
2022/12/14 00:48:28;;;;;;;22.80;10.35;;;;;;;2.12;82.21;96893.50;5063438;28;20048;-57
2022/12/14 00:50:55;;;;;;;37.45;21.13;;;;;;;2.18;84.60;96896.91;5062261;28;20076;-57
2022/12/14 00:53:23;;;;;;;32.28;17.65;;;;;;;2.27;86.38;96892.22;5062496;28;20053;-56
2022/12/14 00:55:50;;;;;;;37.97;18.17;;;;;;;1.99;86.46;96830.84;5062522;28;20481;-56
2022/12/14 00:58:19;;;;;;;29.70;12.88;;;;;;;2.28;87.23;96889.19;5063397;28;20136;-57
2022/12/14 01:00:47;;;;;;;21.05;10.18;;;;;;;1.92;86.86;96871.47;5096007;28;20132;-56
2022/12/14 01:03:13;;;;;;;18.48;9.30;;;;;;;2.12;86.75;96887.25;5063785;28;20056;-56
2022/12/14 01:05:40;;;;;;;20.30;9.45;;;;;;;2.02;87.36;96890.28;5063302;28;20048;-57
2022/12/14 01:08:13;;;;;;;22.50;9.00;;;;;;;2.08;87.53;96880.81;5062576;28;20128;-56
2022/12/14 01:10:40;;;;;;;22.48;10.40;;;;;;;2.07;88.78;96887.41;5061919;28;20315;-56
2022/12/14 01:13:09;;;;;;;20.35;10.27;;;;;;;1.97;89.27;96879.50;5063659;28;20537;-56
2022/12/14 01:15:36;;;;;;;23.23;10.57;;;;;;;2.02;88.29;96882.09;5063795;28;20055;-57
2022/12/14 01:18:02;;;;;;;17.25;8.82;;;;;;;1.58;88.21;96804.78;5062060;28;20555;-57
2022/12/14 01:20:29;;;;;;;21.02;10.35;;;;;;;2.06;87.58;96850.28;5063540;28;20131;-56
2022/12/14 01:22:56;;;;;;;18.05;9.82;;;;;;;1.87;87.09;96808.81;5063231;28;20135;-55
2022/12/14 01:25:23;;;;;;;20.02;10.48;;;;;;;2.26;86.53;96879.72;5063196;28;20512;-55
2022/12/14 01:27:49;;;;;;;18.63;10.23;;;;;;;2.10;85.80;96856.72;5063684;28;20087;-56
2022/12/14 01:30:18;;;;;;;24.70;12.48;;;;;;;1.71;86.37;96773.00;5063273;28;20123;-55
2022/12/14 01:32:45;;;;;;;17.20;8.98;;;;;;;2.10;85.95;96857.53;5063193;28;20523;-55
2022/12/14 01:35:12;;;;;;;19.02;10.13;;;;;;;2.15;86.41;96865.53;5063191;28;20459;-55
2022/12/14 01:37:39;;;;;;;28.35;15.45;;;;;;;2.13;87.27;96884.19;5063172;28;20088;-58
2022/12/14 01:40:06;;;;;;;24.88;12.15;;;;;;;2.16;87.08;96877.28;5063240;28;20091;-56
2022/12/14 01:42:36;;;;;;;22.05;10.93;;;;;;;1.54;87.33;96779.25;5062948;28;20164;-55
2022/12/14 01:45:03;;;;;;;15.48;9.02;;;;;;;2.24;86.70;96874.56;5065462;28;20136;-55
2022/12/14 01:47:40;;;;;;;15.18;8.10;;;;;;;2.24;87.07;96873.75;5066908;28;20051;-56
2022/12/14 01:50:25;;;;;;;17.17;8.30;;;;;;;2.21;87.37;96868.94;5067045;28;20522;-55
2022/12/14 01:52:57;;;;;;;22.30;8.93;;;;;;;2.27;86.97;96867.66;5067092;28;20139;-57
2022/12/14 01:55:30;;;;;;;22.90;9.77;;;;;;;2.24;85.28;96863.63;5066818;28;20080;-55
2022/12/14 01:58:07;;;;;;;;;;;;;;;2.27;83.49;96867.66;5065480;28;20671;-55
2022/12/14 02:00:33;;;;;;;22.38;9.88;;;;;;;2.14;83.41;96863.13;5066737;28;19954;-55
2022/12/14 02:03:15;;;;;;;33.00;12.98;;;;;;;1.90;83.10;96803.50;5066319;28;20165;-55
2022/12/14 02:05:46;;;;;;;24.83;11.30;;;;;;;2.12;83.11;96832.63;5065274;28;20048;-56
2022/12/14 02:08:16;;;;;;;18.00;9.43;;;;;;;2.28;84.13;96863.78;5066840;28;20147;-56
2022/12/14 02:10:44;;;;;;;23.52;12.77;;;;;;;2.34;84.04;96867.97;5065153;28;20099;-55
2022/12/14 02:13:17;;;;;;;20.15;10.27;;;;;;;2.37;84.17;96861.88;5066232;28;20144;-56
2022/12/14 02:15:44;;;;;;;18.63;9.70;;;;;;;2.12;84.12;96816.22;5065098;28;20140;-55
2022/12/14 02:18:17;;;;;;;17.58;9.80;;;;;;;2.51;83.97;96865.22;5064976;28;20056;-55
2022/12/14 02:20:50;;;;;;;;;;;;;;;2.49;81.61;96867.47;5065230;28;20426;-55
2022/12/14 02:23:49;;;;;;;17.73;8.50;;;;;;;1.92;80.09;96778.63;5064866;28;20007;-55
2022/12/14 02:26:46;;;;;;;15.43;7.15;;;;;;;2.49;78.97;96870.22;5058097;28;20127;-55
2022/12/14 02:29:27;;;;;;;12.98;6.38;;;;;;;2.40;78.94;96877.63;5066082;28;20155;-55
2022/12/14 02:31:59;;;;;;;13.00;6.93;;;;;;;2.43;77.78;96882.44;5065706;28;20502;-55
2022/12/14 02:34:47;;;;;;;14.30;6.97;;;;;;;2.50;77.36;96877.28;5065904;28;20089;-56
2022/12/14 02:37:25;;;;;;;13.40;6.63;;;;;;;2.19;76.29;96857.50;5065480;28;20665;-56
2022/12/14 02:40:08;;;;;;;13.32;6.80;;;;;;;2.38;76.99;96875.22;5065840;28;20144;-56
2022/12/14 02:42:43;;;;;;;13.13;6.38;;;;;;;2.23;77.58;96866.69;5064593;28;20163;-58
2022/12/14 02:45:16;;;;;;;14.30;6.80;;;;;;;2.30;78.05;96864.25;5065967;28;20467;-55
2022/12/14 02:48:21;;;;;;;12.80;6.97;;;;;;;2.44;78.57;96851.22;5065920;28;20151;-55
2022/12/14 02:50:58;;;;;;;15.60;6.75;;;;;;;2.49;79.60;96870.22;5051513;28;20091;-55
2022/12/14 02:53:41;;;;;;;18.30;9.40;;;;;;;2.48;80.80;96879.53;5064778;28;20087;-55
2022/12/14 02:56:14;;;;;;;14.20;7.57;;;;;;;2.33;80.58;96855.41;5065275;28;20491;-55
2022/12/14 02:58:49;;;;;;;16.25;8.65;;;;;;;2.53;81.44;96888.38;5065260;28;20325;-55
2022/12/14 03:01:20;;;;;;;18.30;8.57;;;;;;;2.45;82.22;96869.25;5065351;28;20053;-55
2022/12/14 03:03:47;;;;;;;16.20;8.32;;;;;;;2.21;82.64;96825.22;5065600;28;20056;-55
2022/12/14 03:06:25;;;;;;;15.77;8.60;;;;;;;2.59;83.44;96880.81;5064981;28;20052;-56
2022/12/14 03:08:58;;;;;;;16.67;8.05;;;;;;;2.61;84.68;96873.09;5065177;28;20122;-56
2022/12/14 03:11:44;;;;;;;17.67;8.27;;;;;;;2.10;82.33;96878.56;5065369;28;20048;-56
2022/12/14 03:14:24;;;;;;;14.32;7.38;;;;;;;1.78;81.61;96805.28;5065300;28;20132;-57
2022/12/14 03:16:52;;;;;;;14.23;6.90;;;;;;;2.21;80.44;96858.81;5065083;28;20049;-56
2022/12/14 03:19:27;;;;;;;13.85;6.57;;;;;;;2.13;80.73;96888.84;5063708;28;20083;-56
2022/12/14 03:21:58;;;;;;;17.42;7.95;;;;;;;1.93;81.34;96824.72;5064874;28;20591;-55
2022/12/14 03:24:31;;;;;;;13.75;7.47;;;;;;;2.08;85.00;96886.28;5064951;28;20139;-56
2022/12/14 03:27:14;;;;;;;14.50;6.57;;;;;;;1.98;86.30;96859.25;5064723;28;20132;-56
2022/12/14 03:29:46;;;;;;;15.15;7.10;;;;;;;2.22;86.32;96887.75;5065297;28;20163;-55
2022/12/14 03:32:17;;;;;;;11.80;6.20;;;;;;;2.17;85.95;96889.81;5064968;28;20313;-58
2022/12/14 03:34:58;;;;;;;11.77;6.00;;;;;;;2.19;85.60;96901.22;5063220;28;20106;-58
2022/12/14 03:37:33;;;;;;;11.95;6.20;;;;;;;2.17;84.81;96901.53;5063939;28;20087;-55
2022/12/14 03:40:00;;;;;;;13.48;6.00;;;;;;;1.67;85.12;96836.75;5062873;28;20486;-56
2022/12/14 03:42:33;;;;;;;12.32;5.95;;;;;;;2.06;85.03;96904.91;5064631;28;20076;-56
2022/12/14 03:45:04;;;;;;;13.43;5.63;;;;;;;2.02;84.70;96899.28;5064515;28;20147;-56
2022/12/14 03:47:46;;;;;;;10.68;5.47;;;;;;;2.10;85.72;96894.97;5064394;28;20139;-57
2022/12/14 03:50:24;;;;;;;11.38;6.45;;;;;;;2.04;85.78;96890.78;5063194;28;20092;-56
2022/12/14 03:53:17;;;;;;;12.30;6.18;;;;;;;1.64;85.51;96840.09;5064852;28;20080;-56
2022/12/14 03:55:58;;;;;;;11.07;6.03;;;;;;;2.23;84.33;96911.19;5064364;28;20056;-55
2022/12/14 03:58:29;;;;;;;10.93;5.55;;;;;;;2.18;85.34;96905.09;5064405;28;20088;-57
2022/12/14 04:01:13;;;;;;;10.18;5.63;;;;;;;2.22;84.19;96908.78;5062754;28;20148;-56
2022/12/14 04:03:58;;;;;;;11.35;5.57;;;;;;;1.90;84.85;96906.50;5064336;28;20055;-55
2022/12/14 04:06:56;;;;;;;14.63;5.07;;;;;;;2.11;85.96;96904.75;5064235;28;20132;-55
2022/12/14 04:09:34;;;;;;;10.07;4.95;;;;;;;2.06;84.99;96899.44;5064429;28;20175;-55
2022/12/14 04:20:49;;;;;;;10.05;4.85;;;;;;;2.13;84.38;96899.78;5063464;28;20049;-54
2022/12/14 04:26:24;;;;;;;9.13;5.53;;;;;;;2.18;83.96;96889.47;5063538;28;20136;-56
2022/12/14 04:31:49;;;;;;;11.00;6.00;;;;;;;2.11;83.35;96896.56;5063933;28;20135;-56
2022/12/14 04:34:19;;;;;;;12.90;6.07;;;;;;;1.94;82.98;96897.34;5063826;28;20515;-55
2022/12/14 04:36:54;;;;;;;14.57;6.97;;;;;;;1.96;82.72;96895.09;5063213;28;20534;-55
2022/12/14 04:39:28;;;;;;;13.27;6.40;;;;;;;1.97;81.94;96906.81;5063927;28;20502;-55
2022/12/14 04:41:59;;;;;;;22.27;10.07;;;;;;;2.05;81.89;96980.59;5062597;28;20143;-56
2022/12/14 04:44:34;;;;;;;13.90;7.03;;;;;;;1.91;80.08;96908.09;5062367;28;20147;-56
2022/12/14 04:47:03;;;;;;;15.52;7.93;;;;;;;1.98;82.27;96897.50;5063708;28;20091;-55
2022/12/14 04:49:38;;;;;;;14.63;7.00;;;;;;;2.09;82.22;96893.34;5063830;28;20131;-55
2022/12/14 04:52:19;;;;;;;17.02;6.95;;;;;;;2.16;80.81;96899.13;5063628;28;20079;-55
2022/12/14 04:54:54;;;;;;;12.23;6.70;;;;;;;2.09;80.97;96898.78;5062626;28;20100;-55
2022/12/14 04:57:44;;;;;;;13.55;7.10;;;;;;;2.12;80.85;96896.22;5063302;28;20080;-56
2022/12/14 05:00:12;;;;;;;13.90;6.90;;;;;;;2.13;82.26;96899.78;5063531;28;20049;-56
2022/12/14 05:02:57;;;;;;;21.05;8.73;;;;;;;2.16;81.29;96907.34;5063411;28;20142;-57
2022/12/14 05:05:55;;;;;;;14.35;6.93;;;;;;;2.22;79.61;96897.84;5063737;28;20139;-55
2022/12/14 05:08:49;;;;;;;12.98;6.20;;;;;;;1.92;79.45;96896.03;5063639;28;20049;-55
2022/12/14 05:11:21;;;;;;;;;;;;;;;1.49;82.41;96901.38;5056654;28;20136;-57
2022/12/14 05:14:15;;;;;;;13.95;6.30;;;;;;;1.73;81.60;96903.72;5063717;28;20010;-56
2022/12/14 05:16:42;;;;;;;13.80;6.40;;;;;;;1.82;80.52;96918.22;5063299;28;20163;-56
2022/12/14 05:19:14;;;;;;;15.63;7.30;;;;;;;1.82;80.07;96915.47;5064093;28;20075;-55
2022/12/14 05:21:47;;;;;;;13.75;6.55;;;;;;;1.79;81.07;96918.84;5067549;28;20423;-56
2022/12/14 05:24:15;;;;;;;18.55;9.27;;;;;;;1.85;80.12;96920.31;5066910;28;20174;-56
2022/12/14 05:26:43;;;;;;;17.45;7.72;;;;;;;1.76;79.96;96911.25;5066898;28;20084;-54
2022/12/14 05:29:09;;;;;;;15.88;8.30;;;;;;;1.86;80.21;96932.81;5067502;28;20065;-56
2022/12/14 05:31:36;;;;;;;14.88;7.65;;;;;;;1.80;81.32;96917.72;5067140;28;20079;-58
2022/12/14 05:34:03;;;;;;;20.55;9.10;;;;;;;1.88;81.26;96914.97;5066789;28;20566;-55
2022/12/14 05:36:29;;;;;;;21.92;10.05;;;;;;;1.91;81.12;96913.56;5066875;28;20494;-56
2022/12/14 05:38:56;;;;;;;21.38;10.82;;;;;;;2.03;82.47;96920.00;5067124;28;20084;-56
2022/12/14 05:41:23;;;;;;;18.85;10.23;;;;;;;2.13;82.21;96922.44;5067208;28;20056;-56
2022/12/14 05:43:50;;;;;;;23.50;11.13;;;;;;;1.55;81.51;96829.97;5067022;28;20128;-55
2022/12/14 05:46:17;;;;;;;26.00;12.23;;;;;;;2.06;80.06;96921.28;5066491;28;20080;-55
2022/12/14 05:48:44;;;;;;;26.48;11.32;;;;;;;2.17;80.76;96938.97;5065379;28;20144;-55
2022/12/14 05:51:15;;;;;;;22.15;11.38;;;;;;;1.94;81.20;96896.53;5066655;28;20131;-55
2022/12/14 05:53:42;;;;;;;32.42;15.48;;;;;;;2.06;81.40;96911.19;5065704;28;20087;-55
2022/12/14 05:56:10;;;;;;;41.67;18.13;;;;;;;2.27;81.06;96930.50;5066783;28;20906;-55
2022/12/14 05:58:37;;;;;;;49.75;24.42;;;;;;;2.22;80.90;96919.72;5066337;28;20715;-55
2022/12/14 06:01:07;;;;;;;42.17;22.40;;;;;;;2.26;81.30;96915.22;5066735;28;20056;-55
2022/12/14 06:03:41;;;;;;;39.80;18.67;;;;;;;2.36;79.82;96920.34;5066259;28;20048;-55
2022/12/14 06:06:11;;;;;;;22.25;12.73;;;;;;;2.43;79.27;96920.69;5065232;28;20060;-56
2022/12/14 06:08:42;;;;;;;28.30;14.63;;;;;;;2.53;79.01;96932.09;5066449;28;20074;-55
2022/12/14 06:11:16;;;;;;;21.45;11.77;;;;;;;2.54;78.09;96938.38;5066690;28;20084;-56
2022/12/14 06:13:45;;;;;;;17.67;9.07;;;;;;;2.61;78.68;96966.03;5066433;28;20177;-55
2022/12/14 06:16:14;;;;;;;15.40;7.88;;;;;;;2.65;77.67;96951.44;5066539;28;20186;-55
2022/12/14 06:18:44;;;;;;;19.60;9.43;;;;;;;2.80;76.45;96944.63;5064620;28;20060;-55
2022/12/14 06:21:15;;;;;;;19.85;11.57;;;;;;;2.88;76.85;96955.59;5066226;28;20052;-56
2022/12/14 06:23:44;;;;;;;19.52;10.23;;;;;;;2.93;76.66;96940.94;5065551;28;20052;-55
2022/12/14 06:26:15;;;;;;;104.22;37.80;;;;;;;3.00;77.07;96946.72;5064779;28;20055;-55
2022/12/14 06:28:44;;;;;;;49.83;21.73;;;;;;;3.08;76.43;96951.38;5064424;28;20163;-56
2022/12/14 06:31:22;;;;;;;23.95;12.43;;;;;;;2.84;76.03;96910.06;5065580;28;20049;-56
2022/12/14 06:33:52;;;;;;;14.27;7.82;;;;;;;3.14;73.59;96947.34;5065484;28;20060;-56
2022/12/14 06:36:23;;;;;;;18.30;9.13;;;;;;;3.32;74.45;96959.84;5065629;28;20075;-55
2022/12/14 06:38:53;;;;;;;57.83;25.00;;;;;;;3.37;73.89;96951.47;5065377;28;20248;-55
2022/12/14 06:41:23;;;;;;;25.48;13.50;;;;;;;3.39;73.13;96927.31;5065479;28;20056;-56
2022/12/14 06:43:52;;;;;;;24.10;11.85;;;;;;;3.46;72.13;96949.53;5065112;28;20045;-56
2022/12/14 06:46:22;;;;;;;57.72;21.88;;;;;;;2.58;71.65;96786.25;5063993;28;20064;-55
2022/12/14 06:48:52;;;;;;;55.65;24.50;;;;;;;3.57;70.40;96952.69;5065346;28;20056;-56
2022/12/14 06:51:23;;;;;;;24.52;12.02;;;;;;;3.58;71.77;96946.91;5065041;28;20048;-56
2022/12/14 06:53:56;;;;;;;23.00;11.48;;;;;;;3.80;71.02;96949.38;5059223;28;20078;-56
2022/12/14 06:56:27;;;;;;;18.52;9.75;;;;;;;3.84;71.33;96966.75;5064324;28;20101;-55
2022/12/14 06:58:56;;;;;;;24.40;13.00;;;;;;;3.52;70.53;96931.78;5064722;28;20051;-61
2022/12/14 07:01:25;;;;;;;22.40;12.82;;;;;;;3.91;70.91;96950.63;5065130;28;20321;-60
2022/12/14 07:03:57;;;;;;;19.25;9.68;;;;;;;3.85;67.74;96967.56;5063971;28;21679;-60
2022/12/14 07:06:27;;;;;;;22.13;11.45;;;;;;;3.99;68.29;96979.09;5063052;28;20424;-58
2022/12/14 07:08:58;;;;;;;28.33;13.60;;;;;;;4.10;67.95;96978.41;5063921;28;20064;-60
2022/12/14 07:11:28;;;;;;;23.45;12.40;;;;;;;3.99;66.62;96974.44;5063043;28;20055;-61
2022/12/14 07:13:59;;;;;;;27.80;13.27;;;;;;;3.81;66.53;96956.47;5064013;28;20070;-59
2022/12/14 07:16:28;;;;;;;27.35;14.68;;;;;;;4.05;66.61;96989.56;5063380;28;20575;-57
2022/12/14 07:18:57;;;;;;;25.42;13.55;;;;;;;4.14;67.31;96987.56;5064073;28;20059;-57
2022/12/14 07:21:26;;;;;;;22.15;12.88;;;;;;;4.06;64.94;96980.19;5062333;28;20514;-57
2022/12/14 07:23:55;;;;;;;22.60;11.68;;;;;;;4.15;66.40;96978.22;5063498;28;20047;-58
2022/12/14 07:26:26;;;;;;;24.60;12.35;;;;;;;4.28;67.01;96966.19;5062165;28;20516;-59
2022/12/14 07:28:59;;;;;;;24.77;15.20;;;;;;;4.36;65.59;96972.78;5059743;28;20045;-58
2022/12/14 07:31:29;;;;;;;16.60;9.90;;;;;;;3.95;64.27;96940.59;5064192;28;20137;-56
2022/12/14 07:33:59;;;;;;;16.20;8.73;;;;;;;4.33;64.53;96968.75;5059860;28;20060;-58
2022/12/14 07:36:29;;;;;;;13.82;8.15;;;;;;;4.30;64.79;96952.97;5062325;28;20056;-60
2022/12/14 07:38:58;;;;;;;14.98;6.93;;;;;;;3.52;64.37;96997.50;5063631;28;20123;-62
2022/12/14 07:41:31;;;;;;;15.50;8.40;;;;;;;3.92;64.92;96987.84;5062769;28;20051;-57
2022/12/14 07:44:00;;;;;;;;;;;;;;;3.51;66.86;96992.34;5063756;28;20048;-58
2022/12/14 07:46:30;;;;;;;15.63;7.75;;;;;;;3.73;67.44;96992.91;5063011;28;19930;-57
2022/12/14 07:49:00;;;;;;;13.82;7.30;;;;;;;4.11;65.32;96999.19;5062342;28;20503;-60
2022/12/14 07:51:34;;;;;;;15.23;7.45;;;;;;;4.06;65.41;96996.63;5061095;28;20079;-58
2022/12/14 07:54:05;;;;;;;14.85;7.25;;;;;;;4.50;64.59;97001.56;5059786;28;20051;-60
2022/12/14 07:56:37;;;;;;;16.35;8.40;;;;;;;4.32;63.96;96945.22;5056586;28;20048;-59
2022/12/14 07:59:09;;;;;;;15.05;7.78;;;;;;;4.25;64.29;96961.38;5043659;28;20587;-56
2022/12/14 08:01:37;;;;;;;18.13;8.82;;;;;;;4.49;64.87;96999.13;5058773;28;20437;-57
2022/12/14 08:04:08;;;;;;;19.38;9.20;;;;;;;4.75;64.66;96993.47;5063260;28;20044;-57
2022/12/14 08:06:36;;;;;;;16.35;8.63;;;;;;;3.52;67.55;97000.25;5062416;28;20056;-58
2022/12/14 08:09:05;;;;;;;19.08;9.07;;;;;;;2.92;69.44;96966.69;5062099;28;20051;-57
2022/12/14 08:11:33;;;;;;;21.73;8.75;;;;;;;2.75;69.50;96931.94;5059765;28;20040;-60
2022/12/14 08:14:03;;;;;;;13.40;7.28;;;;;;;3.11;68.99;97006.25;5060097;28;20098;-60
2022/12/14 08:16:31;;;;;;;14.02;7.28;;;;;;;3.07;70.47;97005.28;5061944;28;20048;-57
2022/12/14 08:18:59;;;;;;;14.85;7.82;;;;;;;3.31;68.77;96952.78;5062167;28;20045;-58
2022/12/14 08:21:27;;;;;;;13.77;7.22;;;;;;;3.00;70.29;96974.88;5062381;28;20089;-56
2022/12/14 08:23:56;;;;;;;17.52;8.30;;;;;;;2.62;70.32;96907.50;5062148;28;20056;-56
2022/12/14 08:26:25;;;;;;;17.67;8.43;;;;;;;3.20;67.61;96984.34;5062433;28;20159;-56
2022/12/14 08:29:03;;;;;;;14.15;7.03;;;;;;;2.62;68.90;97039.56;5062996;28;20048;-57
2022/12/14 08:31:32;;;;;;;11.93;6.05;;;;;;;3.18;64.63;97030.38;5061892;28;20205;-56
2022/12/14 08:34:02;;;;;;;13.50;7.63;;;;;;;3.48;64.47;97023.91;5060704;28;20064;-58
2022/12/14 08:36:33;;;;;;;14.15;8.40;;;;;;;4.19;64.52;97017.53;5061524;28;20048;-56
2022/12/14 08:39:07;;;;;;;11.68;5.35;;;;;;;2.84;61.21;97178.09;5062738;28;20121;-59
2022/12/14 08:41:35;;;;;;;12.27;6.47;;;;;;;3.69;62.73;97024.84;5060813;28;20060;-57
2022/12/14 08:44:04;;;;;;;10.93;5.32;;;;;;;3.62;61.27;97040.94;5062532;28;20056;-59
2022/12/14 08:46:36;;;;;;;11.55;6.63;;;;;;;3.83;61.39;97030.91;5062681;28;20059;-60
2022/12/14 08:49:05;;;;;;;13.07;6.32;;;;;;;3.86;62.18;97007.53;5061087;28;20060;-61
2022/12/14 08:51:36;;;;;;;11.40;6.38;;;;;;;3.41;64.52;96886.75;5062106;28;20052;-59
2022/12/14 08:54:03;;;;;;;12.70;6.45;;;;;;;4.66;62.80;96997.09;5065749;28;20052;-58
2022/12/14 08:56:30;;;;;;;13.43;6.90;;;;;;;5.15;61.65;97011.09;5081577;28;20067;-59
2022/12/14 08:58:56;;;;;;;13.80;8.10;;;;;;;5.46;62.15;97012.25;5073509;28;20127;-60
2022/12/14 09:01:27;;;;;;;13.68;7.97;;;;;;;5.63;61.27;97005.75;5066663;28;20170;-56
2022/12/14 09:04:05;;;;;;;14.60;7.63;;;;;;;4.99;62.77;97012.84;5065433;28;20080;-57
2022/12/14 09:06:34;;;;;;;10.67;6.57;;;;;;;4.18;62.14;97002.25;5065924;28;20086;-54
2022/12/14 09:09:01;;;;;;;9.95;5.68;;;;;;;3.78;61.23;96962.59;5065053;28;20044;-56
2022/12/14 09:11:28;;;;;;;13.73;7.20;;;;;;;1.73;64.36;96715.34;5064941;28;20135;-60
2022/12/14 09:13:55;;;;;;;11.85;6.55;;;;;;;4.21;66.59;97015.28;5064814;28;20080;-57
2022/12/14 09:16:25;;;;;;;8.90;5.97;;;;;;;4.68;65.21;97006.94;5066077;28;20083;-60
2022/12/14 09:18:52;;;;;;;13.75;6.88;;;;;;;3.98;65.68;96997.47;5066144;28;20491;-59
2022/12/14 09:21:18;;;;;;;11.90;6.97;;;;;;;3.37;67.57;96976.09;5066320;28;20338;-57
2022/12/14 09:23:45;;;;;;;14.02;6.90;;;;;;;3.58;67.32;96996.19;5066243;28;20147;-56
2022/12/14 09:26:20;;;;;;;16.25;7.93;;;;;;;3.90;67.31;96995.59;5066545;28;20080;-59
2022/12/14 09:28:49;;;;;;;13.10;6.93;;;;;;;4.28;65.55;96993.63;5064604;28;20115;-59
2022/12/14 09:31:18;;;;;;;12.38;6.78;;;;;;;4.04;63.82;96899.47;5064854;28;20087;-60
2022/12/14 09:33:45;;;;;;;13.38;6.65;;;;;;;4.54;63.10;96946.84;5058230;28;20067;-61
2022/12/14 09:36:15;;;;;;;13.00;6.63;;;;;;;4.34;63.15;96997.00;5064572;28;20135;-58
2022/12/14 09:38:43;;;;;;;12.70;6.78;;;;;;;4.56;63.19;96986.53;5065976;28;20098;-61
2022/12/14 09:41:35;;;;;;;13.10;6.95;;;;;;;4.74;60.38;96994.63;5064466;28;20056;-59
2022/12/14 09:44:15;;;;;;;12.23;6.20;;;;;;;3.58;60.91;96810.00;5051006;28;20049;-61
2022/12/14 09:47:17;;;;;;;12.40;6.30;;;;;;;4.62;60.45;96976.97;5048322;28;20097;-60
2022/12/14 09:49:49;;;;;;;10.23;5.90;;;;;;;4.79;58.87;96980.72;5045629;28;20511;-60
2022/12/14 09:52:25;;;;;;;12.60;6.67;;;;;;;4.95;59.04;96989.97;5051072;28;20139;-57
2022/12/14 09:54:53;;;;;;;11.00;5.57;;;;;;;4.89;58.19;96980.28;5044632;28;20511;-60
2022/12/14 09:57:24;;;;;;;13.02;7.72;;;;;;;5.51;58.43;96970.03;5053345;28;20088;-61
2022/12/14 09:59:53;;;;;;;12.50;6.30;;;;;;;6.09;57.37;96958.69;5066015;28;20084;-60
2022/12/14 10:02:31;;;;;;;13.32;6.93;;;;;;;6.44;56.25;96957.06;5065359;28;20109;-58
2022/12/14 10:05:23;;;;;;;12.40;5.97;;;;;;;6.86;53.62;96939.09;5064428;28;20147;-61
2022/12/14 10:07:58;;;;;;;9.60;5.85;;;;;;;6.54;53.76;96931.84;5065646;28;20537;-62
2022/12/14 10:10:38;;;;;;;10.25;6.63;;;;;;;6.22;53.23;96877.78;5063988;28;20087;-58
2022/12/14 10:13:18;;;;;;;10.48;5.82;;;;;;;6.64;53.44;96931.34;5064756;28;20151;-59
2022/12/14 10:15:53;;;;;;;13.43;7.30;;;;;;;5.64;56.30;96930.47;5065494;28;20147;-61
2022/12/14 10:18:32;;;;;;;11.15;6.75;;;;;;;5.71;57.16;96926.00;5065210;28;20222;-58
2022/12/14 10:21:24;;;;;;;11.10;6.78;;;;;;;6.28;55.93;96876.41;5064098;28;20060;-57
2022/12/14 10:23:57;;;;;;;11.90;6.50;;;;;;;6.97;55.28;96901.66;5065096;28;20100;-58
2022/12/14 10:26:41;;;;;;;19.00;11.18;;;;;;;6.47;54.42;96903.28;5064991;28;20159;-59
2022/12/14 10:29:18;;;;;;;50.70;17.92;;;;;;;6.57;55.91;96892.63;5065366;28;20517;-58
2022/12/14 10:32:08;;;;;;;17.40;8.07;;;;;;;7.13;54.12;96885.16;5064838;28;20049;-59
2022/12/14 10:34:38;;;;;;;20.20;10.02;;;;;;;7.30;53.53;96896.66;5059588;28;20079;-61
2022/12/14 10:37:21;;;;;;;20.15;9.57;;;;;;;6.11;54.04;96788.69;5065118;28;20076;-60
2022/12/14 10:40:12;;;;;;;51.80;16.35;;;;;;;7.01;53.34;96890.75;5045890;28;20077;-58
2022/12/14 10:43:10;;;;;;;18.40;10.07;;;;;;;7.41;53.62;96886.72;5059472;28;20132;-60
2022/12/14 10:46:07;;;;;;;25.30;9.95;;;;;;;7.39;51.44;96894.56;5051647;28;20115;-59
2022/12/14 10:49:00;;;;;;;16.48;8.10;;;;;;;6.10;53.02;96886.84;5053134;28;20053;-58
2022/12/14 10:51:33;;;;;;;26.98;13.25;;;;;;;6.47;55.56;96881.28;5056342;28;20087;-58
2022/12/14 10:54:18;;;;;;;17.23;9.52;;;;;;;6.91;55.21;96878.28;5064710;28;20509;-58
2022/12/14 10:56:47;;;;;;;16.98;11.73;;;;;;;7.18;53.83;96871.13;5064463;28;20147;-58
2022/12/14 10:59:24;;;;;;;12.25;7.28;;;;;;;7.59;52.74;96881.69;5064374;28;20054;-58
2022/12/14 11:02:15;;;;;;;15.95;7.38;;;;;;;8.12;50.77;96875.53;5064116;28;20131;-59
2022/12/14 11:05:00;;;;;;;11.55;7.00;;;;;;;7.62;50.50;96879.03;5044772;28;20078;-60
2022/12/14 11:07:33;;;;;;;13.10;7.53;;;;;;;7.25;52.29;96880.41;5045759;28;20072;-58
2022/12/14 11:10:23;;;;;;;12.65;7.15;;;;;;;6.82;52.84;96894.16;5064782;28;20131;-56
2022/12/14 11:13:00;;;;;;;10.07;6.38;;;;;;;7.00;53.06;96884.41;5048973;28;20076;-60
2022/12/14 11:15:40;;;;;;;10.95;6.35;;;;;;;6.50;54.16;96892.41;5064048;28;20082;-60
2022/12/14 11:18:16;;;;;;;10.30;5.75;;;;;;;6.73;53.18;96899.00;5064048;28;20102;-57
2022/12/14 11:21:04;;;;;;;12.18;7.18;;;;;;;6.60;52.96;96883.69;5063994;28;20067;-59
2022/12/14 11:23:38;;;;;;;13.30;7.00;;;;;;;6.32;53.52;96874.59;5064016;28;20147;-58
2022/12/14 11:26:30;;;;;;;13.88;7.00;;;;;;;6.94;53.90;96874.81;5062709;28;20074;-60
2022/12/14 11:28:59;;;;;;;10.43;5.88;;;;;;;7.33;52.91;96867.63;5064104;28;20098;-60
2022/12/14 11:31:35;;;;;;;13.50;6.93;;;;;;;7.27;52.85;96867.06;5062579;28;20151;-59
2022/12/14 11:34:04;;;;;;;10.68;5.72;;;;;;;7.21;51.86;96864.94;5062365;28;20144;-60
2022/12/14 11:36:35;;;;;;;11.35;6.30;;;;;;;7.29;52.10;96853.75;5063686;28;20131;-60
2022/12/14 11:39:05;;;;;;;15.15;8.25;;;;;;;7.34;52.98;96838.91;5063683;28;20100;-59
2022/12/14 11:41:35;;;;;;;16.83;8.40;;;;;;;7.66;51.94;96841.34;5049148;28;20242;-59
2022/12/14 11:44:23;;;;;;;13.00;6.93;;;;;;;6.62;52.98;96834.59;5048936;28;20571;-58
2022/12/14 11:46:58;;;;;;;11.05;5.85;;;;;;;5.90;54.59;96802.59;5056907;28;20151;-58
2022/12/14 11:49:36;;;;;;;11.98;6.97;;;;;;;6.09;55.17;96827.53;5045838;28;20534;-58
2022/12/14 11:52:12;;;;;;;9.90;5.78;;;;;;;6.21;55.26;96823.97;5058576;28;20154;-57
2022/12/14 11:54:42;;;;;;;10.55;5.50;;;;;;;6.58;54.10;96822.69;5063240;28;20087;-60
2022/12/14 11:57:30;;;;;;;7.55;3.95;;;;;;;6.43;55.26;96814.38;5063877;28;20048;-59
2022/12/14 12:00:09;;;;;;;7.65;4.72;;;;;;;6.18;56.68;96813.63;5042341;28;20198;-60
2022/12/14 12:02:47;;;;;;;8.85;4.82;;;;;;;6.07;54.96;96752.00;5060201;28;20108;-61
2022/12/14 12:05:17;;;;;;;8.27;4.40;;;;;;;5.59;55.22;96749.34;5063456;28;20201;-57
2022/12/14 12:07:53;;;;;;;19.65;8.63;;;;;;;5.71;55.63;96801.53;5062669;28;20084;-60
2022/12/14 12:10:25;;;;;;;10.75;5.57;;;;;;;5.96;55.91;96819.63;5061986;28;20123;-58
2022/12/14 12:12:55;;;;;;;8.77;4.90;;;;;;;6.34;55.86;96819.22;5063397;28;20054;-57
2022/12/14 12:15:28;;;;;;;11.45;6.00;;;;;;;6.04;55.54;96771.97;5063427;28;20404;-58